sensor_id;sensor_type;location;lat;lon;timestamp;P1;durP1;ratioP1;P2;durP2;ratioP2
23472;SDS011;11909;52.516;13.564;2022-12-20T00:01:51;26.60;;;15.80;;
23472;SDS011;11909;52.516;13.564;2022-12-20T00:04:19;28.15;;;16.40;;
23472;SDS011;11909;52.516;13.564;2022-12-20T00:06:47;32.80;;;16.65;;
23472;SDS011;11909;52.516;13.564;2022-12-20T00:09:15;27.52;;;15.45;;
23472;SDS011;11909;52.516;13.564;2022-12-20T00:11:42;29.15;;;16.45;;
23472;SDS011;11909;52.516;13.564;2022-12-20T00:14:10;22.60;;;14.52;;
23472;SDS011;11909;52.516;13.564;2022-12-20T00:16:39;42.05;;;21.52;;
23472;SDS011;11909;52.516;13.564;2022-12-20T00:19:09;28.70;;;15.73;;
23472;SDS011;11909;52.516;13.564;2022-12-20T00:21:37;27.58;;;15.68;;
23472;SDS011;11909;52.516;13.564;2022-12-20T00:24:05;28.33;;;16.98;;
23472;SDS011;11909;52.516;13.564;2022-12-20T00:26:34;26.20;;;15.40;;
23472;SDS011;11909;52.516;13.564;2022-12-20T00:29:03;25.48;;;15.07;;
23472;SDS011;11909;52.516;13.564;2022-12-20T00:31:32;25.60;;;15.13;;
23472;SDS011;11909;52.516;13.564;2022-12-20T00:34:01;26.83;;;15.43;;
23472;SDS011;11909;52.516;13.564;2022-12-20T00:36:30;29.20;;;14.82;;
23472;SDS011;11909;52.516;13.564;2022-12-20T00:38:58;24.38;;;14.95;;
23472;SDS011;11909;52.516;13.564;2022-12-20T00:41:27;25.75;;;15.35;;
23472;SDS011;11909;52.516;13.564;2022-12-20T00:43:56;24.17;;;14.77;;
23472;SDS011;11909;52.516;13.564;2022-12-20T00:46:24;26.02;;;14.63;;
23472;SDS011;11909;52.516;13.564;2022-12-20T00:48:52;22.85;;;13.75;;
23472;SDS011;11909;52.516;13.564;2022-12-20T00:51:23;24.10;;;14.45;;
23472;SDS011;11909;52.516;13.564;2022-12-20T00:53:52;26.20;;;15.10;;
23472;SDS011;11909;52.516;13.564;2022-12-20T00:56:20;23.83;;;14.60;;
23472;SDS011;11909;52.516;13.564;2022-12-20T00:58:51;23.77;;;13.68;;
23472;SDS011;11909;52.516;13.564;2022-12-20T01:01:20;25.95;;;15.27;;
23472;SDS011;11909;52.516;13.564;2022-12-20T01:03:50;24.33;;;14.82;;
23472;SDS011;11909;52.516;13.564;2022-12-20T01:06:19;23.43;;;14.63;;
23472;SDS011;11909;52.516;13.564;2022-12-20T01:08:49;23.83;;;13.98;;
23472;SDS011;11909;52.516;13.564;2022-12-20T01:11:18;25.90;;;15.02;;
23472;SDS011;11909;52.516;13.564;2022-12-20T01:13:47;27.43;;;15.23;;
23472;SDS011;11909;52.516;13.564;2022-12-20T01:16:17;23.48;;;14.02;;
23472;SDS011;11909;52.516;13.564;2022-12-20T01:18:46;24.20;;;14.80;;
23472;SDS011;11909;52.516;13.564;2022-12-20T01:21:18;23.05;;;13.13;;
23472;SDS011;11909;52.516;13.564;2022-12-20T01:23:48;23.42;;;14.15;;
23472;SDS011;11909;52.516;13.564;2022-12-20T01:26:18;25.15;;;14.32;;
23472;SDS011;11909;52.516;13.564;2022-12-20T01:28:50;24.45;;;15.07;;
23472;SDS011;11909;52.516;13.564;2022-12-20T01:31:19;23.90;;;13.82;;
23472;SDS011;11909;52.516;13.564;2022-12-20T01:33:47;26.23;;;14.63;;
23472;SDS011;11909;52.516;13.564;2022-12-20T01:36:18;23.98;;;13.77;;
23472;SDS011;11909;52.516;13.564;2022-12-20T01:38:53;22.88;;;13.65;;
23472;SDS011;11909;52.516;13.564;2022-12-20T01:41:22;23.33;;;14.25;;
23472;SDS011;11909;52.516;13.564;2022-12-20T01:43:50;21.77;;;13.80;;
23472;SDS011;11909;52.516;13.564;2022-12-20T01:46:21;23.25;;;14.30;;
23472;SDS011;11909;52.516;13.564;2022-12-20T01:48:50;22.85;;;13.68;;
23472;SDS011;11909;52.516;13.564;2022-12-20T01:51:22;25.88;;;14.15;;
23472;SDS011;11909;52.516;13.564;2022-12-20T01:53:53;24.10;;;14.45;;
23472;SDS011;11909;52.516;13.564;2022-12-20T01:56:24;25.75;;;14.02;;
23472;SDS011;11909;52.516;13.564;2022-12-20T01:58:52;22.00;;;13.38;;
23472;SDS011;11909;52.516;13.564;2022-12-20T02:01:21;22.52;;;13.23;;
23472;SDS011;11909;52.516;13.564;2022-12-20T02:03:50;20.73;;;12.70;;
23472;SDS011;11909;52.516;13.564;2022-12-20T02:06:22;22.83;;;13.20;;
23472;SDS011;11909;52.516;13.564;2022-12-20T02:08:54;23.55;;;13.27;;
23472;SDS011;11909;52.516;13.564;2022-12-20T02:11:31;23.02;;;13.52;;
23472;SDS011;11909;52.516;13.564;2022-12-20T02:14:13;21.38;;;12.88;;
23472;SDS011;11909;52.516;13.564;2022-12-20T02:16:54;22.75;;;13.48;;
23472;SDS011;11909;52.516;13.564;2022-12-20T02:19:35;23.45;;;13.68;;
23472;SDS011;11909;52.516;13.564;2022-12-20T02:22:24;21.23;;;13.43;;
23472;SDS011;11909;52.516;13.564;2022-12-20T02:25:11;23.73;;;13.07;;
23472;SDS011;11909;52.516;13.564;2022-12-20T02:27:51;24.88;;;13.85;;
23472;SDS011;11909;52.516;13.564;2022-12-20T02:30:30;22.77;;;13.93;;
23472;SDS011;11909;52.516;13.564;2022-12-20T02:33:01;23.02;;;13.43;;
23472;SDS011;11909;52.516;13.564;2022-12-20T02:38:01;19.80;;;12.52;;
23472;SDS011;11909;52.516;13.564;2022-12-20T02:43:02;21.58;;;12.55;;
23472;SDS011;11909;52.516;13.564;2022-12-20T02:45:54;25.63;;;13.48;;
23472;SDS011;11909;52.516;13.564;2022-12-20T02:48:23;22.45;;;13.00;;
23472;SDS011;11909;52.516;13.564;2022-12-20T02:50:55;26.60;;;13.88;;
23472;SDS011;11909;52.516;13.564;2022-12-20T02:53:25;21.83;;;12.57;;
23472;SDS011;11909;52.516;13.564;2022-12-20T02:55:56;24.92;;;11.80;;
23472;SDS011;11909;52.516;13.564;2022-12-20T02:58:28;22.17;;;13.18;;
23472;SDS011;11909;52.516;13.564;2022-12-20T03:01:05;21.45;;;13.05;;
23472;SDS011;11909;52.516;13.564;2022-12-20T03:03:36;19.80;;;12.10;;
23472;SDS011;11909;52.516;13.564;2022-12-20T03:06:05;20.63;;;12.55;;
23472;SDS011;11909;52.516;13.564;2022-12-20T03:08:33;19.77;;;12.40;;
23472;SDS011;11909;52.516;13.564;2022-12-20T03:11:01;19.90;;;13.00;;
23472;SDS011;11909;52.516;13.564;2022-12-20T03:13:28;20.17;;;12.65;;
23472;SDS011;11909;52.516;13.564;2022-12-20T03:15:56;23.17;;;13.52;;
23472;SDS011;11909;52.516;13.564;2022-12-20T03:18:25;21.85;;;12.60;;
23472;SDS011;11909;52.516;13.564;2022-12-20T03:20:53;21.48;;;13.23;;
23472;SDS011;11909;52.516;13.564;2022-12-20T03:23:21;22.27;;;12.80;;
23472;SDS011;11909;52.516;13.564;2022-12-20T03:25:48;19.60;;;12.43;;
23472;SDS011;11909;52.516;13.564;2022-12-20T03:28:16;19.90;;;13.25;;
23472;SDS011;11909;52.516;13.564;2022-12-20T03:30:44;25.05;;;14.10;;
23472;SDS011;11909;52.516;13.564;2022-12-20T03:33:12;23.88;;;13.48;;
23472;SDS011;11909;52.516;13.564;2022-12-20T03:35:41;23.08;;;12.80;;
23472;SDS011;11909;52.516;13.564;2022-12-20T03:38:09;24.48;;;13.77;;
23472;SDS011;11909;52.516;13.564;2022-12-20T03:40:37;21.98;;;12.55;;
23472;SDS011;11909;52.516;13.564;2022-12-20T03:43:04;22.38;;;12.63;;
23472;SDS011;11909;52.516;13.564;2022-12-20T03:45:32;20.95;;;12.52;;
23472;SDS011;11909;52.516;13.564;2022-12-20T03:48:00;21.60;;;13.48;;
23472;SDS011;11909;52.516;13.564;2022-12-20T03:50:27;19.83;;;11.63;;
23472;SDS011;11909;52.516;13.564;2022-12-20T03:52:57;21.85;;;13.15;;
23472;SDS011;11909;52.516;13.564;2022-12-20T03:55:26;22.60;;;12.27;;
23472;SDS011;11909;52.516;13.564;2022-12-20T03:57:53;21.13;;;12.20;;
23472;SDS011;11909;52.516;13.564;2022-12-20T04:00:21;24.42;;;12.70;;
23472;SDS011;11909;52.516;13.564;2022-12-20T04:02:49;19.42;;;12.32;;
23472;SDS011;11909;52.516;13.564;2022-12-20T04:05:17;24.55;;;13.15;;
23472;SDS011;11909;52.516;13.564;2022-12-20T04:07:46;20.90;;;12.85;;
23472;SDS011;11909;52.516;13.564;2022-12-20T04:10:15;20.35;;;12.75;;
23472;SDS011;11909;52.516;13.564;2022-12-20T04:12:43;20.50;;;12.60;;
23472;SDS011;11909;52.516;13.564;2022-12-20T04:15:11;22.48;;;12.68;;
23472;SDS011;11909;52.516;13.564;2022-12-20T04:17:38;21.63;;;13.55;;
23472;SDS011;11909;52.516;13.564;2022-12-20T04:20:06;20.63;;;12.50;;
23472;SDS011;11909;52.516;13.564;2022-12-20T04:22:45;20.65;;;11.98;;
23472;SDS011;11909;52.516;13.564;2022-12-20T04:25:13;22.35;;;12.65;;
23472;SDS011;11909;52.516;13.564;2022-12-20T04:27:46;20.45;;;12.15;;
23472;SDS011;11909;52.516;13.564;2022-12-20T04:30:14;17.75;;;11.98;;
23472;SDS011;11909;52.516;13.564;2022-12-20T04:32:42;21.50;;;13.00;;
23472;SDS011;11909;52.516;13.564;2022-12-20T04:35:09;19.42;;;12.38;;
23472;SDS011;11909;52.516;13.564;2022-12-20T04:37:37;19.63;;;12.20;;
23472;SDS011;11909;52.516;13.564;2022-12-20T04:40:05;18.65;;;11.82;;
23472;SDS011;11909;52.516;13.564;2022-12-20T04:42:34;19.70;;;12.30;;
23472;SDS011;11909;52.516;13.564;2022-12-20T04:45:04;19.95;;;11.85;;
23472;SDS011;11909;52.516;13.564;2022-12-20T04:47:32;21.70;;;11.60;;
23472;SDS011;11909;52.516;13.564;2022-12-20T04:50:00;20.08;;;12.05;;
23472;SDS011;11909;52.516;13.564;2022-12-20T04:52:27;21.92;;;11.88;;
23472;SDS011;11909;52.516;13.564;2022-12-20T04:55:13;19.02;;;11.93;;
23472;SDS011;11909;52.516;13.564;2022-12-20T04:57:41;22.30;;;13.02;;
23472;SDS011;11909;52.516;13.564;2022-12-20T05:00:11;21.77;;;13.00;;
23472;SDS011;11909;52.516;13.564;2022-12-20T05:02:40;20.60;;;13.02;;
23472;SDS011;11909;52.516;13.564;2022-12-20T05:05:08;18.85;;;12.02;;
23472;SDS011;11909;52.516;13.564;2022-12-20T05:07:36;21.98;;;12.77;;
23472;SDS011;11909;52.516;13.564;2022-12-20T05:10:04;20.85;;;12.45;;
23472;SDS011;11909;52.516;13.564;2022-12-20T05:12:32;20.75;;;12.55;;
23472;SDS011;11909;52.516;13.564;2022-12-20T05:15:00;23.33;;;12.93;;
23472;SDS011;11909;52.516;13.564;2022-12-20T05:17:29;20.55;;;12.10;;
23472;SDS011;11909;52.516;13.564;2022-12-20T05:19:57;21.25;;;12.70;;
23472;SDS011;11909;52.516;13.564;2022-12-20T05:22:25;19.38;;;12.93;;
23472;SDS011;11909;52.516;13.564;2022-12-20T05:25:11;18.00;;;11.50;;
23472;SDS011;11909;52.516;13.564;2022-12-20T05:27:57;23.13;;;12.93;;
23472;SDS011;11909;52.516;13.564;2022-12-20T05:30:24;22.05;;;12.63;;
23472;SDS011;11909;52.516;13.564;2022-12-20T05:32:54;21.27;;;12.30;;
23472;SDS011;11909;52.516;13.564;2022-12-20T05:35:22;21.17;;;12.95;;
23472;SDS011;11909;52.516;13.564;2022-12-20T05:37:49;23.02;;;13.18;;
23472;SDS011;11909;52.516;13.564;2022-12-20T05:40:17;21.85;;;12.38;;
23472;SDS011;11909;52.516;13.564;2022-12-20T05:42:45;23.35;;;13.35;;
23472;SDS011;11909;52.516;13.564;2022-12-20T05:45:13;22.00;;;13.15;;
23472;SDS011;11909;52.516;13.564;2022-12-20T05:47:40;20.95;;;12.95;;
23472;SDS011;11909;52.516;13.564;2022-12-20T05:50:09;24.75;;;13.05;;
23472;SDS011;11909;52.516;13.564;2022-12-20T05:52:44;22.05;;;12.68;;
23472;SDS011;11909;52.516;13.564;2022-12-20T05:55:12;19.55;;;12.80;;
23472;SDS011;11909;52.516;13.564;2022-12-20T05:57:40;21.48;;;12.65;;
23472;SDS011;11909;52.516;13.564;2022-12-20T06:00:08;22.75;;;12.98;;
23472;SDS011;11909;52.516;13.564;2022-12-20T06:02:37;26.58;;;14.40;;
23472;SDS011;11909;52.516;13.564;2022-12-20T06:05:05;24.52;;;13.63;;
23472;SDS011;11909;52.516;13.564;2022-12-20T06:07:34;21.13;;;12.98;;
23472;SDS011;11909;52.516;13.564;2022-12-20T06:10:02;22.33;;;12.95;;
23472;SDS011;11909;52.516;13.564;2022-12-20T06:12:30;24.88;;;12.93;;
23472;SDS011;11909;52.516;13.564;2022-12-20T06:14:58;20.55;;;13.25;;
23472;SDS011;11909;52.516;13.564;2022-12-20T06:17:26;23.17;;;12.88;;
23472;SDS011;11909;52.516;13.564;2022-12-20T06:19:53;21.58;;;13.68;;
23472;SDS011;11909;52.516;13.564;2022-12-20T06:22:22;20.15;;;12.77;;
23472;SDS011;11909;52.516;13.564;2022-12-20T06:24:51;22.00;;;12.70;;
23472;SDS011;11909;52.516;13.564;2022-12-20T06:27:18;24.05;;;13.20;;
23472;SDS011;11909;52.516;13.564;2022-12-20T06:29:48;19.92;;;12.13;;
23472;SDS011;11909;52.516;13.564;2022-12-20T06:32:19;18.25;;;11.40;;
23472;SDS011;11909;52.516;13.564;2022-12-20T06:34:47;22.50;;;12.48;;
23472;SDS011;11909;52.516;13.564;2022-12-20T06:37:14;19.60;;;12.30;;
23472;SDS011;11909;52.516;13.564;2022-12-20T06:39:42;22.48;;;13.15;;
23472;SDS011;11909;52.516;13.564;2022-12-20T06:42:11;20.48;;;12.07;;
23472;SDS011;11909;52.516;13.564;2022-12-20T06:44:39;18.40;;;12.55;;
23472;SDS011;11909;52.516;13.564;2022-12-20T06:47:07;23.75;;;13.88;;
23472;SDS011;11909;52.516;13.564;2022-12-20T06:49:34;20.88;;;13.07;;
23472;SDS011;11909;52.516;13.564;2022-12-20T06:52:02;21.50;;;12.93;;
23472;SDS011;11909;52.516;13.564;2022-12-20T06:54:30;22.55;;;13.13;;
23472;SDS011;11909;52.516;13.564;2022-12-20T06:56:58;21.40;;;13.35;;
23472;SDS011;11909;52.516;13.564;2022-12-20T06:59:27;22.20;;;13.75;;
23472;SDS011;11909;52.516;13.564;2022-12-20T07:01:55;20.80;;;13.35;;
23472;SDS011;11909;52.516;13.564;2022-12-20T07:04:23;26.60;;;13.75;;
23472;SDS011;11909;52.516;13.564;2022-12-20T07:06:51;22.58;;;14.18;;
23472;SDS011;11909;52.516;13.564;2022-12-20T07:09:18;23.95;;;13.75;;
23472;SDS011;11909;52.516;13.564;2022-12-20T07:11:46;20.20;;;13.45;;
23472;SDS011;11909;52.516;13.564;2022-12-20T07:14:14;23.75;;;14.23;;
23472;SDS011;11909;52.516;13.564;2022-12-20T07:16:43;20.58;;;12.70;;
23472;SDS011;11909;52.516;13.564;2022-12-20T07:19:11;22.73;;;14.00;;
23472;SDS011;11909;52.516;13.564;2022-12-20T07:21:39;26.90;;;15.20;;
23472;SDS011;11909;52.516;13.564;2022-12-20T07:24:06;27.00;;;14.60;;
23472;SDS011;11909;52.516;13.564;2022-12-20T07:26:35;24.33;;;14.95;;
23472;SDS011;11909;52.516;13.564;2022-12-20T07:29:03;25.45;;;14.60;;
23472;SDS011;11909;52.516;13.564;2022-12-20T07:31:38;26.10;;;14.45;;
23472;SDS011;11909;52.516;13.564;2022-12-20T07:34:07;23.15;;;14.45;;
23472;SDS011;11909;52.516;13.564;2022-12-20T07:39:04;23.40;;;15.38;;
23472;SDS011;11909;52.516;13.564;2022-12-20T07:41:32;28.05;;;14.75;;
23472;SDS011;11909;52.516;13.564;2022-12-20T07:44:00;23.17;;;14.38;;
23472;SDS011;11909;52.516;13.564;2022-12-20T07:46:28;28.48;;;15.82;;
23472;SDS011;11909;52.516;13.564;2022-12-20T07:48:56;25.92;;;14.30;;
23472;SDS011;11909;52.516;13.564;2022-12-20T07:51:27;27.25;;;15.88;;
23472;SDS011;11909;52.516;13.564;2022-12-20T07:53:58;25.30;;;15.13;;
23472;SDS011;11909;52.516;13.564;2022-12-20T07:56:28;23.40;;;14.85;;
23472;SDS011;11909;52.516;13.564;2022-12-20T07:59:05;27.17;;;16.23;;
23472;SDS011;11909;52.516;13.564;2022-12-20T08:01:36;25.80;;;15.25;;
23472;SDS011;11909;52.516;13.564;2022-12-20T08:04:05;25.33;;;15.35;;
23472;SDS011;11909;52.516;13.564;2022-12-20T08:06:39;26.50;;;15.80;;
23472;SDS011;11909;52.516;13.564;2022-12-20T08:09:08;29.20;;;16.40;;
23472;SDS011;11909;52.516;13.564;2022-12-20T08:11:39;28.42;;;15.23;;
23472;SDS011;11909;52.516;13.564;2022-12-20T08:14:08;24.15;;;14.75;;
23472;SDS011;11909;52.516;13.564;2022-12-20T08:16:37;28.45;;;16.60;;
23472;SDS011;11909;52.516;13.564;2022-12-20T08:19:05;28.23;;;16.00;;
23472;SDS011;11909;52.516;13.564;2022-12-20T08:21:32;28.08;;;15.73;;
23472;SDS011;11909;52.516;13.564;2022-12-20T08:24:01;27.65;;;16.17;;
23472;SDS011;11909;52.516;13.564;2022-12-20T08:26:29;25.13;;;15.48;;
23472;SDS011;11909;52.516;13.564;2022-12-20T08:28:57;27.67;;;15.25;;
23472;SDS011;11909;52.516;13.564;2022-12-20T08:31:25;27.02;;;16.10;;
23472;SDS011;11909;52.516;13.564;2022-12-20T08:33:53;26.38;;;15.55;;
23472;SDS011;11909;52.516;13.564;2022-12-20T08:36:21;31.40;;;15.85;;
23472;SDS011;11909;52.516;13.564;2022-12-20T08:38:48;27.20;;;16.23;;
23472;SDS011;11909;52.516;13.564;2022-12-20T08:41:18;24.65;;;15.57;;
23472;SDS011;11909;52.516;13.564;2022-12-20T08:43:45;24.90;;;15.23;;
23472;SDS011;11909;52.516;13.564;2022-12-20T08:46:13;29.70;;;15.98;;
23472;SDS011;11909;52.516;13.564;2022-12-20T08:48:41;27.98;;;16.20;;
23472;SDS011;11909;52.516;13.564;2022-12-20T08:51:09;26.92;;;15.57;;
23472;SDS011;11909;52.516;13.564;2022-12-20T08:53:37;29.88;;;16.13;;
23472;SDS011;11909;52.516;13.564;2022-12-20T08:56:06;31.73;;;17.33;;
23472;SDS011;11909;52.516;13.564;2022-12-20T08:58:36;28.85;;;15.88;;
23472;SDS011;11909;52.516;13.564;2022-12-20T09:01:05;27.05;;;16.30;;
23472;SDS011;11909;52.516;13.564;2022-12-20T09:03:35;30.65;;;17.52;;
23472;SDS011;11909;52.516;13.564;2022-12-20T09:06:04;32.92;;;17.45;;
23472;SDS011;11909;52.516;13.564;2022-12-20T09:08:34;28.63;;;16.23;;
23472;SDS011;11909;52.516;13.564;2022-12-20T09:11:02;29.48;;;15.93;;
23472;SDS011;11909;52.516;13.564;2022-12-20T09:13:32;25.40;;;15.47;;
23472;SDS011;11909;52.516;13.564;2022-12-20T09:16:10;34.25;;;16.88;;
23472;SDS011;11909;52.516;13.564;2022-12-20T09:18:40;33.28;;;16.27;;
23472;SDS011;11909;52.516;13.564;2022-12-20T09:21:08;27.73;;;16.35;;
23472;SDS011;11909;52.516;13.564;2022-12-20T09:23:37;31.73;;;17.13;;
23472;SDS011;11909;52.516;13.564;2022-12-20T09:26:05;31.85;;;17.20;;
23472;SDS011;11909;52.516;13.564;2022-12-20T09:28:36;29.80;;;16.58;;
23472;SDS011;11909;52.516;13.564;2022-12-20T09:31:04;29.98;;;17.90;;
23472;SDS011;11909;52.516;13.564;2022-12-20T09:33:35;30.25;;;16.55;;
23472;SDS011;11909;52.516;13.564;2022-12-20T09:36:03;31.95;;;17.67;;
23472;SDS011;11909;52.516;13.564;2022-12-20T09:38:32;30.20;;;16.55;;
23472;SDS011;11909;52.516;13.564;2022-12-20T09:41:00;30.85;;;16.55;;
23472;SDS011;11909;52.516;13.564;2022-12-20T09:43:29;29.00;;;16.30;;
23472;SDS011;11909;52.516;13.564;2022-12-20T09:45:59;27.70;;;16.17;;
23472;SDS011;11909;52.516;13.564;2022-12-20T09:48:29;27.37;;;16.03;;
23472;SDS011;11909;52.516;13.564;2022-12-20T09:51:03;24.40;;;16.10;;
23472;SDS011;11909;52.516;13.564;2022-12-20T09:53:38;30.33;;;16.95;;
23472;SDS011;11909;52.516;13.564;2022-12-20T09:56:15;30.48;;;16.27;;
23472;SDS011;11909;52.516;13.564;2022-12-20T09:58:58;34.42;;;17.92;;
23472;SDS011;11909;52.516;13.564;2022-12-20T10:01:29;26.13;;;16.33;;
23472;SDS011;11909;52.516;13.564;2022-12-20T10:04:04;31.23;;;15.90;;
23472;SDS011;11909;52.516;13.564;2022-12-20T10:06:42;27.67;;;14.82;;
23472;SDS011;11909;52.516;13.564;2022-12-20T10:09:21;63.58;;;30.40;;
23472;SDS011;11909;52.516;13.564;2022-12-20T10:12:08;30.58;;;15.52;;
23472;SDS011;11909;52.516;13.564;2022-12-20T10:14:50;27.35;;;15.38;;
23472;SDS011;11909;52.516;13.564;2022-12-20T10:17:31;22.27;;;14.18;;
23472;SDS011;11909;52.516;13.564;2022-12-20T10:20:18;29.90;;;17.05;;
23472;SDS011;11909;52.516;13.564;2022-12-20T10:22:58;25.48;;;14.75;;
23472;SDS011;11909;52.516;13.564;2022-12-20T10:25:29;21.77;;;13.88;;
23472;SDS011;11909;52.516;13.564;2022-12-20T10:27:59;24.88;;;13.50;;
23472;SDS011;11909;52.516;13.564;2022-12-20T10:30:30;26.35;;;14.27;;
23472;SDS011;11909;52.516;13.564;2022-12-20T10:33:00;26.75;;;13.68;;
23472;SDS011;11909;52.516;13.564;2022-12-20T10:35:29;22.65;;;13.40;;
23472;SDS011;11909;52.516;13.564;2022-12-20T10:38:01;20.67;;;13.20;;
23472;SDS011;11909;52.516;13.564;2022-12-20T10:40:34;23.23;;;13.45;;
23472;SDS011;11909;52.516;13.564;2022-12-20T10:43:24;22.40;;;12.73;;
23472;SDS011;11909;52.516;13.564;2022-12-20T10:45:54;26.20;;;13.43;;
23472;SDS011;11909;52.516;13.564;2022-12-20T10:48:28;31.27;;;14.50;;
23472;SDS011;11909;52.516;13.564;2022-12-20T10:50:59;32.40;;;15.40;;
23472;SDS011;11909;52.516;13.564;2022-12-20T10:53:29;35.38;;;13.93;;
23472;SDS011;11909;52.516;13.564;2022-12-20T10:56:15;24.75;;;14.23;;
23472;SDS011;11909;52.516;13.564;2022-12-20T10:58:52;30.58;;;13.57;;
23472;SDS011;11909;52.516;13.564;2022-12-20T11:01:23;23.05;;;13.93;;
23472;SDS011;11909;52.516;13.564;2022-12-20T11:03:55;22.25;;;12.43;;
23472;SDS011;11909;52.516;13.564;2022-12-20T11:06:27;20.98;;;11.85;;
23472;SDS011;11909;52.516;13.564;2022-12-20T11:09:25;18.17;;;11.95;;
23472;SDS011;11909;52.516;13.564;2022-12-20T11:11:58;22.98;;;11.75;;
23472;SDS011;11909;52.516;13.564;2022-12-20T11:14:28;19.10;;;12.82;;
23472;SDS011;11909;52.516;13.564;2022-12-20T11:17:06;22.02;;;13.00;;
23472;SDS011;11909;52.516;13.564;2022-12-20T11:20:03;19.70;;;11.93;;
23472;SDS011;11909;52.516;13.564;2022-12-20T11:22:45;19.73;;;11.85;;
23472;SDS011;11909;52.516;13.564;2022-12-20T11:25:30;23.45;;;12.07;;
23472;SDS011;11909;52.516;13.564;2022-12-20T11:28:13;21.58;;;12.10;;
23472;SDS011;11909;52.516;13.564;2022-12-20T11:30:53;22.88;;;13.07;;
23472;SDS011;11909;52.516;13.564;2022-12-20T11:36:09;18.67;;;11.98;;
23472;SDS011;11909;52.516;13.564;2022-12-20T11:38:43;21.35;;;11.98;;
23472;SDS011;11909;52.516;13.564;2022-12-20T11:41:28;19.15;;;12.48;;
23472;SDS011;11909;52.516;13.564;2022-12-20T11:44:06;17.05;;;10.90;;
23472;SDS011;11909;52.516;13.564;2022-12-20T11:46:58;21.98;;;11.90;;
23472;SDS011;11909;52.516;13.564;2022-12-20T11:49:42;18.88;;;11.43;;
23472;SDS011;11909;52.516;13.564;2022-12-20T11:52:22;19.35;;;11.65;;
23472;SDS011;11909;52.516;13.564;2022-12-20T11:55:03;21.90;;;11.88;;
23472;SDS011;11909;52.516;13.564;2022-12-20T11:57:42;18.67;;;11.25;;
23472;SDS011;11909;52.516;13.564;2022-12-20T12:00:34;18.33;;;11.33;;
23472;SDS011;11909;52.516;13.564;2022-12-20T12:03:06;22.05;;;12.20;;
23472;SDS011;11909;52.516;13.564;2022-12-20T12:05:40;27.38;;;13.13;;
23472;SDS011;11909;52.516;13.564;2022-12-20T12:08:11;20.70;;;11.50;;
23472;SDS011;11909;52.516;13.564;2022-12-20T12:10:44;21.88;;;11.85;;
23472;SDS011;11909;52.516;13.564;2022-12-20T12:13:22;17.80;;;11.05;;
23472;SDS011;11909;52.516;13.564;2022-12-20T12:15:56;16.67;;;11.10;;
23472;SDS011;11909;52.516;13.564;2022-12-20T12:18:28;17.30;;;11.55;;
23472;SDS011;11909;52.516;13.564;2022-12-20T12:21:00;19.42;;;11.45;;
23472;SDS011;11909;52.516;13.564;2022-12-20T12:23:36;16.80;;;11.45;;
23472;SDS011;11909;52.516;13.564;2022-12-20T12:26:12;24.80;;;12.63;;
23472;SDS011;11909;52.516;13.564;2022-12-20T12:28:48;20.83;;;11.48;;
23472;SDS011;11909;52.516;13.564;2022-12-20T12:31:21;23.70;;;13.02;;
23472;SDS011;11909;52.516;13.564;2022-12-20T12:33:56;20.00;;;11.10;;
23472;SDS011;11909;52.516;13.564;2022-12-20T12:36:37;27.55;;;12.77;;
23472;SDS011;11909;52.516;13.564;2022-12-20T12:42:40;23.45;;;11.80;;
23472;SDS011;11909;52.516;13.564;2022-12-20T12:45:22;29.00;;;12.70;;
23472;SDS011;11909;52.516;13.564;2022-12-20T12:47:55;23.52;;;13.25;;
23472;SDS011;11909;52.516;13.564;2022-12-20T12:50:28;20.05;;;11.27;;
23472;SDS011;11909;52.516;13.564;2022-12-20T12:53:02;19.73;;;11.82;;
23472;SDS011;11909;52.516;13.564;2022-12-20T12:55:43;20.70;;;11.43;;
23472;SDS011;11909;52.516;13.564;2022-12-20T13:01:02;28.42;;;16.85;;
23472;SDS011;11909;52.516;13.564;2022-12-20T13:03:38;19.52;;;11.57;;
23472;SDS011;11909;52.516;13.564;2022-12-20T13:09:20;23.58;;;12.13;;
23472;SDS011;11909;52.516;13.564;2022-12-20T13:18:23;23.52;;;13.23;;
23472;SDS011;11909;52.516;13.564;2022-12-20T13:27:17;22.48;;;13.32;;
23472;SDS011;11909;52.516;13.564;2022-12-20T13:29:51;25.17;;;14.45;;
23472;SDS011;11909;52.516;13.564;2022-12-20T13:32:54;20.25;;;13.38;;
23472;SDS011;11909;52.516;13.564;2022-12-20T13:35:40;26.15;;;13.20;;
23472;SDS011;11909;52.516;13.564;2022-12-20T13:38:34;21.35;;;12.63;;
23472;SDS011;11909;52.516;13.564;2022-12-20T13:41:09;19.45;;;12.07;;
23472;SDS011;11909;52.516;13.564;2022-12-20T13:43:45;19.85;;;12.82;;
23472;SDS011;11909;52.516;13.564;2022-12-20T13:46:18;23.50;;;12.97;;
23472;SDS011;11909;52.516;13.564;2022-12-20T13:48:51;20.70;;;13.43;;
23472;SDS011;11909;52.516;13.564;2022-12-20T13:51:22;21.08;;;13.60;;
23472;SDS011;11909;52.516;13.564;2022-12-20T13:53:51;19.98;;;11.95;;
23472;SDS011;11909;52.516;13.564;2022-12-20T13:56:30;20.42;;;12.00;;
23472;SDS011;11909;52.516;13.564;2022-12-20T13:59:03;20.25;;;12.25;;
23472;SDS011;11909;52.516;13.564;2022-12-20T14:01:34;20.55;;;12.85;;
23472;SDS011;11909;52.516;13.564;2022-12-20T14:04:03;32.95;;;18.60;;
23472;SDS011;11909;52.516;13.564;2022-12-20T14:09:02;21.02;;;11.82;;
23472;SDS011;11909;52.516;13.564;2022-12-20T14:11:31;22.77;;;13.13;;
23472;SDS011;11909;52.516;13.564;2022-12-20T14:13:59;19.00;;;12.00;;
23472;SDS011;11909;52.516;13.564;2022-12-20T14:16:29;20.88;;;12.80;;
23472;SDS011;11909;52.516;13.564;2022-12-20T14:21:28;20.42;;;12.32;;
23472;SDS011;11909;52.516;13.564;2022-12-20T14:23:57;17.33;;;11.20;;
23472;SDS011;11909;52.516;13.564;2022-12-20T14:26:28;21.25;;;12.32;;
23472;SDS011;11909;52.516;13.564;2022-12-20T14:29:00;19.25;;;11.80;;
23472;SDS011;11909;52.516;13.564;2022-12-20T14:31:33;20.58;;;12.45;;
23472;SDS011;11909;52.516;13.564;2022-12-20T14:34:05;21.17;;;12.40;;
23472;SDS011;11909;52.516;13.564;2022-12-20T14:36:39;23.55;;;12.73;;
23472;SDS011;11909;52.516;13.564;2022-12-20T14:39:23;20.30;;;12.68;;
23472;SDS011;11909;52.516;13.564;2022-12-20T14:41:55;24.35;;;12.27;;
23472;SDS011;11909;52.516;13.564;2022-12-20T14:44:24;20.70;;;12.40;;
23472;SDS011;11909;52.516;13.564;2022-12-20T14:46:54;21.70;;;12.37;;
23472;SDS011;11909;52.516;13.564;2022-12-20T14:49:23;19.70;;;12.52;;
23472;SDS011;11909;52.516;13.564;2022-12-20T14:52:03;22.48;;;12.93;;
23472;SDS011;11909;52.516;13.564;2022-12-20T14:54:35;20.63;;;12.23;;
23472;SDS011;11909;52.516;13.564;2022-12-20T14:57:36;21.25;;;12.82;;
23472;SDS011;11909;52.516;13.564;2022-12-20T15:00:09;19.17;;;12.35;;
23472;SDS011;11909;52.516;13.564;2022-12-20T15:02:41;20.95;;;12.98;;
23472;SDS011;11909;52.516;13.564;2022-12-20T15:05:36;20.60;;;13.23;;
23472;SDS011;11909;52.516;13.564;2022-12-20T15:08:11;20.77;;;13.10;;
23472;SDS011;11909;52.516;13.564;2022-12-20T15:10:41;23.00;;;13.75;;
23472;SDS011;11909;52.516;13.564;2022-12-20T15:13:13;21.83;;;13.93;;